createdAt,value
2023-03-15T00:00:02.252Z,3.00
2023-03-15T00:01:01.988Z,2.94
2023-03-15T00:02:02.093Z,2.90
2023-03-15T00:03:01.971Z,2.81
2023-03-15T00:04:02.164Z,2.75
2023-03-15T00:05:01.969Z,2.71
2023-03-15T00:06:02.037Z,2.66
2023-03-15T00:07:01.961Z,2.61
2023-03-15T00:08:04.414Z,2.57
2023-03-15T00:09:01.913Z,2.51
2023-03-15T00:10:01.939Z,2.48
2023-03-15T00:11:01.915Z,2.40
2023-03-15T00:12:01.929Z,2.39
2023-03-15T00:13:01.862Z,2.35
2023-03-15T00:14:01.893Z,2.30
2023-03-15T00:15:01.857Z,2.30
2023-03-15T00:16:01.911Z,2.29
2023-03-15T00:17:02.735Z,2.25
2023-03-15T00:18:02.173Z,2.24
2023-03-15T00:19:01.793Z,2.19
2023-03-15T00:20:01.830Z,2.17
2023-03-15T00:21:01.776Z,2.12
2023-03-15T00:22:01.839Z,2.10
2023-03-15T00:23:01.772Z,2.04
2023-03-15T00:24:01.784Z,1.95
2023-03-15T00:25:01.731Z,1.89
2023-03-15T00:26:01.735Z,1.85
2023-03-15T00:27:01.703Z,1.81
2023-03-15T00:28:01.744Z,1.73
2023-03-15T00:29:01.691Z,1.67
2023-03-15T00:30:01.730Z,1.57
2023-03-15T00:31:01.702Z,1.52
2023-03-15T00:32:02.147Z,1.46
2023-03-15T00:33:01.662Z,1.39
2023-03-15T00:34:01.802Z,1.36
2023-03-15T00:35:01.659Z,1.26
2023-03-15T00:36:01.646Z,1.24
2023-03-15T00:37:01.699Z,1.21
2023-03-15T00:38:01.632Z,1.16
2023-03-15T00:39:01.588Z,1.12
2023-03-15T00:40:01.611Z,1.08
2023-03-15T00:41:01.751Z,1.08
2023-03-15T00:42:01.566Z,1.06
2023-03-15T00:43:01.553Z,1.02
2023-03-15T00:44:01.556Z,1.02
2023-03-15T00:45:01.536Z,0.99
2023-03-15T00:46:01.533Z,1.00
2023-03-15T00:47:01.505Z,0.98
2023-03-15T00:48:01.571Z,0.99
2023-03-15T00:49:01.559Z,0.99
2023-03-15T00:50:01.527Z,0.99
2023-03-15T00:51:01.488Z,1.00
2023-03-15T00:52:01.457Z,0.96
2023-03-15T00:53:01.502Z,0.96
2023-03-15T00:54:07.562Z,0.94
2023-03-15T00:55:01.435Z,0.96
2023-03-15T00:56:01.585Z,0.96
2023-03-15T00:57:01.412Z,0.96
2023-03-15T00:58:01.820Z,0.96
2023-03-15T00:59:01.393Z,0.94
2023-03-15T01:00:01.503Z,0.96
2023-03-15T01:01:01.404Z,0.94
2023-03-15T01:02:01.510Z,0.94
2023-03-15T01:03:01.380Z,0.96
2023-03-15T01:04:01.505Z,0.92
2023-03-15T01:05:01.374Z,0.92
2023-03-15T01:06:01.346Z,0.92
2023-03-15T01:07:01.302Z,0.92
2023-03-15T01:08:01.326Z,0.92
2023-03-15T01:09:01.467Z,0.92
2023-03-15T01:10:01.566Z,0.92
2023-03-15T01:11:01.266Z,0.94
2023-03-15T01:12:01.295Z,0.92
2023-03-15T01:13:01.242Z,0.94
2023-03-15T01:14:01.227Z,0.92
2023-03-15T01:15:01.332Z,0.92
2023-03-15T01:16:01.237Z,0.94
2023-03-15T01:17:01.242Z,0.94
2023-03-15T01:18:01.194Z,0.94
2023-03-15T01:19:01.167Z,0.92
2023-03-15T01:20:01.181Z,0.92
2023-03-15T01:21:01.217Z,0.92
2023-03-15T01:22:01.153Z,0.92
2023-03-15T01:23:01.181Z,0.94
2023-03-15T01:24:01.147Z,0.91
2023-03-15T01:25:01.116Z,0.91
2023-03-15T01:26:01.146Z,0.91
2023-03-15T01:27:01.084Z,0.91
2023-03-15T01:28:01.103Z,0.92
2023-03-15T01:29:01.087Z,0.94
2023-03-15T01:30:01.081Z,0.91
2023-03-15T01:31:01.190Z,0.92
2023-03-15T01:32:01.087Z,0.92
2023-03-15T01:33:01.146Z,0.92
2023-03-15T01:34:01.105Z,0.90
2023-03-15T01:35:00.999Z,0.92
2023-03-15T01:36:01.118Z,0.94
2023-03-15T01:37:01.022Z,0.92
2023-03-15T01:38:01.033Z,0.91
2023-03-15T01:39:00.971Z,0.92
2023-03-15T01:40:00.994Z,0.92
2023-03-15T01:41:00.969Z,0.91
2023-03-15T01:42:00.972Z,0.91
2023-03-15T01:43:00.925Z,0.92
2023-03-15T01:44:00.937Z,0.91
2023-03-15T01:45:00.936Z,0.91
2023-03-15T01:46:00.929Z,0.94
2023-03-15T01:47:01.013Z,0.92
2023-03-15T01:48:00.900Z,0.94
2023-03-15T01:49:00.883Z,0.91
2023-03-15T01:50:01.052Z,0.91
2023-03-15T01:51:00.852Z,0.94
2023-03-15T01:52:00.840Z,0.94
2023-03-15T01:53:00.860Z,0.94
2023-03-15T01:54:00.892Z,0.96
2023-03-15T01:55:00.834Z,0.98
2023-03-15T01:56:00.812Z,0.96
2023-03-15T01:57:00.784Z,0.94
2023-03-15T01:58:00.894Z,0.98
2023-03-15T01:59:00.809Z,0.98
2023-03-15T02:00:00.762Z,0.98
2023-03-15T02:01:00.809Z,0.98
2023-03-15T02:02:00.821Z,1.00
2023-03-15T02:03:00.776Z,0.99
2023-03-15T02:04:00.721Z,0.98
2023-03-15T02:05:00.736Z,0.99
2023-03-15T02:06:00.705Z,0.99
2023-03-15T02:07:00.678Z,1.00
2023-03-15T02:08:00.706Z,1.00
2023-03-15T02:09:00.655Z,1.03
2023-03-15T02:10:00.710Z,1.00
2023-03-15T02:11:00.664Z,1.00
2023-03-15T02:12:00.654Z,1.00
2023-03-15T02:13:00.648Z,1.00
2023-03-15T02:14:00.636Z,1.00
2023-03-15T02:15:00.858Z,1.00
2023-03-15T02:16:00.683Z,1.00
2023-03-15T02:17:00.639Z,1.02
2023-03-15T02:18:00.604Z,1.02
2023-03-15T02:19:00.708Z,1.03
2023-03-15T02:20:00.614Z,1.03
2023-03-15T02:21:00.576Z,1.05
2023-03-15T02:22:00.548Z,1.06
2023-03-15T02:23:00.558Z,1.08
2023-03-15T02:24:00.533Z,1.09
2023-03-15T02:25:00.529Z,1.09
2023-03-15T02:26:00.550Z,1.09
2023-03-15T02:27:00.578Z,1.08
2023-03-15T02:28:00.506Z,1.08
2023-03-15T02:29:00.512Z,1.08
2023-03-15T02:30:00.460Z,1.08
2023-03-15T02:31:00.479Z,1.09
2023-03-15T02:32:00.519Z,1.09
2023-03-15T02:33:00.421Z,1.12
2023-03-15T02:34:00.412Z,1.10
2023-03-15T02:35:00.395Z,1.13
2023-03-15T02:36:00.443Z,1.12
2023-03-15T02:37:00.410Z,1.16
2023-03-15T02:38:00.366Z,1.16
2023-03-15T02:39:00.368Z,1.12
2023-03-15T02:40:00.350Z,1.13
2023-03-15T02:41:00.343Z,1.13
2023-03-15T02:42:00.351Z,1.16
2023-03-15T02:43:00.304Z,1.13
2023-03-15T02:44:00.318Z,1.16
2023-03-15T02:45:00.296Z,1.13
2023-03-15T02:46:00.382Z,1.13
2023-03-15T02:47:00.298Z,1.12
2023-03-15T02:48:00.295Z,1.16
2023-03-15T02:49:00.246Z,1.12
2023-03-15T02:50:00.257Z,1.13
2023-03-15T02:51:00.235Z,1.13
2023-03-15T02:52:00.234Z,1.16
2023-03-15T02:53:00.238Z,1.13
2023-03-15T02:54:00.252Z,1.16
2023-03-15T02:55:00.254Z,1.16
2023-03-15T02:56:00.232Z,1.16
2023-03-15T02:57:00.503Z,1.17
2023-03-15T02:58:00.202Z,1.17
2023-03-15T02:59:00.160Z,1.17
2023-03-15T03:00:00.218Z,1.18
2023-03-15T03:01:00.329Z,1.18
2023-03-15T03:02:00.180Z,1.17
2023-03-15T03:03:00.137Z,1.17
2023-03-15T03:04:00.149Z,1.18
2023-03-15T03:05:00.119Z,1.21
2023-03-15T03:06:00.212Z,1.21
2023-03-15T03:07:00.136Z,1.20
2023-03-15T03:08:00.076Z,1.23
2023-03-15T03:09:00.080Z,1.24
2023-03-15T03:10:00.322Z,1.24
2023-03-15T03:11:00.141Z,1.24
2023-03-15T03:12:00.107Z,1.24
2023-03-15T03:13:00.094Z,1.24
2023-03-15T03:14:00.213Z,1.24
2023-03-15T03:15:00.048Z,1.24
2023-03-15T03:16:00.157Z,1.23
2023-03-15T03:17:00.059Z,1.23
2023-03-15T03:18:00.079Z,1.23
2023-03-15T03:19:00.017Z,1.23
2023-03-15T03:20:00.100Z,1.24
2023-03-15T03:21:00.145Z,1.23
2023-03-15T03:22:00.042Z,1.24
2023-03-15T03:23:00.077Z,1.24
2023-03-15T03:24:00.033Z,1.27
2023-03-15T03:24:59.901Z,1.27
2023-03-15T03:26:00.046Z,1.26
2023-03-15T03:27:00.031Z,1.27
2023-03-15T03:27:59.874Z,1.27
2023-03-15T03:28:59.932Z,1.27
2023-03-15T03:29:59.934Z,1.28
2023-03-15T03:31:00.061Z,1.28
2023-03-15T03:32:00.107Z,1.27
2023-03-15T03:32:59.923Z,1.30
2023-03-15T03:33:59.824Z,1.31
2023-03-15T03:34:59.782Z,1.31
2023-03-15T03:35:59.984Z,1.30
2023-03-15T03:36:59.908Z,1.31
2023-03-15T03:37:59.756Z,1.34
2023-03-15T03:38:59.912Z,1.35
2023-03-15T03:39:59.822Z,1.35
2023-03-15T03:40:59.892Z,1.34
2023-03-15T03:41:59.933Z,1.35
2023-03-15T03:42:59.835Z,1.35
2023-03-15T03:44:00.066Z,1.36
2023-03-15T03:44:59.670Z,1.36
2023-03-15T03:45:59.689Z,1.36
2023-03-15T03:47:00.000Z,1.35
2023-03-15T03:47:59.670Z,1.35
2023-03-15T03:48:59.676Z,1.34
2023-03-15T03:49:59.658Z,1.34
2023-03-15T03:50:59.610Z,1.34
2023-03-15T03:51:59.663Z,1.34
2023-03-15T03:52:59.593Z,1.36
2023-03-15T03:53:59.592Z,1.36
2023-03-15T03:54:59.594Z,1.35
2023-03-15T03:55:59.554Z,1.36
2023-03-15T03:56:59.547Z,1.35
2023-03-15T03:57:59.563Z,1.35
2023-03-15T03:58:59.548Z,1.35
2023-03-15T03:59:59.513Z,1.35
2023-03-15T04:00:59.615Z,1.34
2023-03-15T04:01:59.576Z,1.34
2023-03-15T04:02:59.556Z,1.34
2023-03-15T04:03:59.482Z,1.35
2023-03-15T04:04:59.559Z,1.31
2023-03-15T04:05:59.483Z,1.35
2023-03-15T04:06:59.461Z,1.34
2023-03-15T04:07:59.439Z,1.35
2023-03-15T04:08:59.468Z,1.35
2023-03-15T04:09:59.423Z,1.34
2023-03-15T04:10:59.433Z,1.36
2023-03-15T04:11:59.422Z,1.34
2023-03-15T04:12:59.410Z,1.34
2023-03-15T04:13:59.419Z,1.34
2023-03-15T04:14:59.400Z,1.35
2023-03-15T04:15:59.495Z,1.35
2023-03-15T04:16:59.437Z,1.35
2023-03-15T04:17:59.385Z,1.36
2023-03-15T04:18:59.476Z,1.35
2023-03-15T04:19:59.333Z,1.35
2023-03-15T04:20:59.333Z,1.34
2023-03-15T04:21:59.372Z,1.34
2023-03-15T04:22:59.289Z,1.34
2023-03-15T04:23:59.456Z,1.36
2023-03-15T04:24:59.280Z,1.35
2023-03-15T04:25:59.253Z,1.35
2023-03-15T04:26:59.315Z,1.35
2023-03-15T04:27:59.480Z,1.38
2023-03-15T04:28:59.281Z,1.38
2023-03-15T04:29:59.407Z,1.35
2023-03-15T04:30:59.424Z,1.36
2023-03-15T04:31:59.195Z,1.38
2023-03-15T04:32:59.473Z,1.36
2023-03-15T04:33:59.218Z,1.35
2023-03-15T04:34:59.335Z,1.36
2023-03-15T04:35:59.421Z,1.34
2023-03-15T04:36:59.205Z,1.36
2023-03-15T04:37:59.175Z,1.35
2023-03-15T04:38:59.192Z,1.35
2023-03-15T04:39:59.118Z,1.36
2023-03-15T04:40:59.231Z,1.38
2023-03-15T04:41:59.128Z,1.36
2023-03-15T04:42:59.178Z,1.36
2023-03-15T04:43:59.152Z,1.36
2023-03-15T04:44:59.088Z,1.35
2023-03-15T04:45:59.142Z,1.36
2023-03-15T04:46:59.290Z,1.36
2023-03-15T04:47:59.048Z,1.38
2023-03-15T04:48:59.063Z,1.36
2023-03-15T04:49:59.293Z,1.36
2023-03-15T04:50:59.131Z,1.39
2023-03-15T04:51:59.015Z,1.38
2023-03-15T04:52:59.029Z,1.38
2023-03-15T04:53:59.026Z,1.38
2023-03-15T04:54:59.034Z,1.39
2023-03-15T04:56:00.026Z,1.38
2023-03-15T04:56:59.031Z,1.36
2023-03-15T04:57:59.000Z,1.38
2023-03-15T04:58:58.976Z,1.36
2023-03-15T04:59:58.982Z,1.36
2023-03-15T05:00:59.037Z,1.38
2023-03-15T05:01:58.990Z,1.39
2023-03-15T05:02:58.902Z,1.38
2023-03-15T05:03:58.870Z,1.39
2023-03-15T05:04:58.878Z,1.38
2023-03-15T05:05:58.855Z,1.38
2023-03-15T05:06:58.889Z,1.39
2023-03-15T05:07:58.842Z,1.41
2023-03-15T05:08:58.853Z,1.39
2023-03-15T05:09:58.837Z,1.39
2023-03-15T05:10:58.882Z,1.39
2023-03-15T05:11:58.857Z,1.41
2023-03-15T05:12:58.810Z,1.41
2023-03-15T05:13:58.940Z,1.41
2023-03-15T05:14:58.831Z,1.39
2023-03-15T05:15:58.761Z,1.39
2023-03-15T05:16:58.712Z,1.39
2023-03-15T05:17:58.704Z,1.39
2023-03-15T05:18:58.700Z,1.38
2023-03-15T05:19:58.700Z,1.38
2023-03-15T05:20:58.706Z,1.38
2023-03-15T05:21:58.648Z,1.38
2023-03-15T05:22:58.633Z,1.36
2023-03-15T05:23:58.726Z,1.38
2023-03-15T05:24:58.643Z,1.38
2023-03-15T05:25:58.596Z,1.38
2023-03-15T05:26:58.608Z,1.36
2023-03-15T05:27:58.555Z,1.36
2023-03-15T05:28:58.596Z,1.36
2023-03-15T05:29:58.554Z,1.34
2023-03-15T05:31:00.543Z,1.34
2023-03-15T05:31:58.595Z,1.34
2023-03-15T05:32:58.600Z,1.34
2023-03-15T05:33:58.570Z,1.31
2023-03-15T05:34:58.530Z,1.31
2023-03-15T05:35:58.500Z,1.30
2023-03-15T05:36:58.480Z,1.30
2023-03-15T05:37:58.624Z,1.28
2023-03-15T05:38:58.697Z,1.28
2023-03-15T05:39:58.541Z,1.27
2023-03-15T05:40:58.545Z,1.28
2023-03-15T05:41:58.725Z,1.26
2023-03-15T05:42:58.703Z,1.24
2023-03-15T05:43:58.433Z,1.26
2023-03-15T05:44:58.448Z,1.23
2023-03-15T05:45:58.476Z,1.20
2023-03-15T05:46:58.449Z,1.18
2023-03-15T05:47:58.448Z,1.17
2023-03-15T05:48:58.413Z,1.17
2023-03-15T05:49:58.424Z,1.18
2023-03-15T05:50:58.430Z,1.20
2023-03-15T05:51:58.328Z,1.20
2023-03-15T05:52:58.614Z,1.18
2023-03-15T05:53:58.565Z,1.20
2023-03-15T05:54:58.312Z,1.20
2023-03-15T05:55:58.312Z,1.20
2023-03-15T05:56:58.320Z,1.21
2023-03-15T05:57:58.275Z,1.21
2023-03-15T05:58:58.295Z,1.23
2023-03-15T05:59:58.281Z,1.23
2023-03-15T06:00:58.258Z,1.23
2023-03-15T06:01:58.244Z,1.23
2023-03-15T06:02:58.334Z,1.26
2023-03-15T06:03:58.255Z,1.24
2023-03-15T06:04:58.198Z,1.28
2023-03-15T06:05:58.222Z,1.28
2023-03-15T06:06:58.192Z,1.30
2023-03-15T06:07:58.165Z,1.31
2023-03-15T06:08:58.165Z,1.31
2023-03-15T06:09:58.124Z,1.34
2023-03-15T06:10:58.353Z,1.35
2023-03-15T06:11:58.148Z,1.36
2023-03-15T06:12:58.113Z,1.36
2023-03-15T06:13:58.093Z,1.38
2023-03-15T06:14:58.088Z,1.39
2023-03-15T06:15:58.113Z,1.39
2023-03-15T06:16:58.193Z,1.41
2023-03-15T06:17:58.069Z,1.39
2023-03-15T06:18:58.057Z,1.38
2023-03-15T06:19:58.019Z,1.39
2023-03-15T06:20:58.429Z,1.41
2023-03-15T06:21:58.029Z,1.44
2023-03-15T06:22:58.240Z,1.44
2023-03-15T06:23:58.363Z,1.44
2023-03-15T06:24:57.999Z,1.46
2023-03-15T06:25:58.084Z,1.46
2023-03-15T06:26:58.024Z,1.45
2023-03-15T06:27:58.080Z,1.45
2023-03-15T06:28:57.968Z,1.44
2023-03-15T06:29:58.039Z,1.42
2023-03-15T06:30:58.005Z,1.41
2023-03-15T06:31:57.976Z,1.41
2023-03-15T06:32:57.930Z,1.41
2023-03-15T06:33:58.209Z,1.42
2023-03-15T06:34:58.342Z,1.45
2023-03-15T06:35:57.941Z,1.49
2023-03-15T06:36:57.950Z,1.49
2023-03-15T06:37:58.022Z,1.49
2023-03-15T06:38:58.007Z,1.49
2023-03-15T06:39:58.017Z,1.52
2023-03-15T06:40:57.907Z,1.53
2023-03-15T06:41:58.001Z,1.55
2023-03-15T06:42:57.953Z,1.57
2023-03-15T06:43:58.016Z,1.60
2023-03-15T06:44:58.031Z,1.62
2023-03-15T06:45:58.018Z,1.66
2023-03-15T06:46:57.884Z,1.66
2023-03-15T06:47:57.765Z,1.69
2023-03-15T06:48:57.967Z,1.67
2023-03-15T06:49:57.979Z,1.73
2023-03-15T06:50:58.008Z,1.78
2023-03-15T06:51:58.093Z,1.84
2023-03-15T06:52:58.016Z,1.81
2023-03-15T06:53:58.017Z,1.82
2023-03-15T06:54:57.916Z,1.81
2023-03-15T06:55:57.835Z,1.78
2023-03-15T06:56:57.923Z,1.74
2023-03-15T06:57:58.281Z,1.78
2023-03-15T06:58:57.943Z,1.78
2023-03-15T06:59:57.844Z,1.81
2023-03-15T07:00:58.467Z,1.81
2023-03-15T07:01:58.030Z,1.84
2023-03-15T07:02:57.930Z,1.84
2023-03-15T07:03:58.027Z,1.85
2023-03-15T07:04:57.889Z,1.87
2023-03-15T07:05:57.937Z,1.87
2023-03-15T07:06:57.917Z,1.82
2023-03-15T07:07:57.922Z,1.84
2023-03-15T07:08:57.872Z,1.89
2023-03-15T07:09:57.895Z,1.97
2023-03-15T07:10:57.667Z,2.01
2023-03-15T07:11:58.037Z,2.04
2023-03-15T07:12:57.902Z,2.07
2023-03-15T07:13:57.804Z,2.10
2023-03-15T07:14:58.028Z,2.11
2023-03-15T07:15:57.906Z,2.15
2023-03-15T07:16:57.898Z,2.12
2023-03-15T07:17:57.877Z,2.07
2023-03-15T07:18:57.738Z,2.11
2023-03-15T07:19:57.526Z,2.17
2023-03-15T07:20:58.652Z,2.15
2023-03-15T07:21:57.388Z,2.19
2023-03-15T07:22:57.676Z,2.18
2023-03-15T07:23:57.361Z,2.18
2023-03-15T07:24:57.372Z,2.22
2023-03-15T07:26:05.347Z,2.21
2023-03-15T07:26:57.340Z,2.21
2023-03-15T07:27:58.292Z,2.18
2023-03-15T07:28:57.402Z,2.10
2023-03-15T07:29:57.343Z,2.12
2023-03-15T07:30:57.354Z,2.19
2023-03-15T07:31:57.323Z,2.35
2023-03-15T07:32:57.413Z,2.39
2023-03-15T07:33:57.291Z,2.50
2023-03-15T07:34:57.300Z,2.63
2023-03-15T07:35:57.363Z,2.61
2023-03-15T07:36:57.840Z,2.73
2023-03-15T07:37:57.275Z,2.71
2023-03-15T07:38:57.321Z,2.66
2023-03-15T07:39:57.325Z,2.60
2023-03-15T07:40:57.337Z,2.66
2023-03-15T07:41:57.221Z,2.75
2023-03-15T07:42:57.277Z,2.72
2023-03-15T07:43:58.549Z,2.72
2023-03-15T07:44:57.451Z,2.73
2023-03-15T07:45:57.265Z,2.65
2023-03-15T07:46:57.224Z,2.66
2023-03-15T07:47:57.160Z,2.66
2023-03-15T07:48:57.137Z,2.76
2023-03-15T07:49:57.098Z,2.68
2023-03-15T07:50:57.978Z,2.51
2023-03-15T07:51:57.148Z,2.45
2023-03-15T07:52:57.155Z,2.55
2023-03-15T07:53:57.055Z,2.63
2023-03-15T07:54:57.291Z,2.60
2023-03-15T07:55:57.134Z,2.60
2023-03-15T07:56:57.101Z,2.73
2023-03-15T07:57:57.217Z,2.81
2023-03-15T07:58:57.170Z,2.75
2023-03-15T07:59:57.278Z,2.72
2023-03-15T08:00:57.030Z,2.69
2023-03-15T08:01:57.066Z,2.78
2023-03-15T08:02:57.011Z,2.90
2023-03-15T08:03:57.019Z,3.12
2023-03-15T08:04:56.983Z,3.32
2023-03-15T08:05:56.943Z,3.36
2023-03-15T08:06:56.960Z,3.18
2023-03-15T08:07:57.716Z,3.07
2023-03-15T08:08:57.143Z,2.87
2023-03-15T08:09:57.111Z,2.69
2023-03-15T08:10:57.054Z,2.60
2023-03-15T08:11:56.876Z,2.61
2023-03-15T08:12:56.896Z,2.66
2023-03-15T08:13:56.869Z,2.81
2023-03-15T08:14:56.937Z,2.87
2023-03-15T08:15:56.940Z,3.08
2023-03-15T08:16:56.820Z,3.26
2023-03-15T08:17:56.837Z,3.23
2023-03-15T08:18:56.796Z,3.18
2023-03-15T08:19:56.789Z,3.08
2023-03-15T08:20:56.748Z,3.17
2023-03-15T08:21:56.802Z,3.36
2023-03-15T08:22:56.790Z,3.49
2023-03-15T08:23:56.777Z,3.60
2023-03-15T08:24:56.726Z,3.67
2023-03-15T08:25:56.757Z,3.67
2023-03-15T08:26:56.758Z,3.74
2023-03-15T08:27:56.702Z,3.81
2023-03-15T08:28:56.691Z,3.91
2023-03-15T08:29:56.707Z,3.98
2023-03-15T08:30:56.670Z,3.99
2023-03-15T08:31:56.724Z,4.02
2023-03-15T08:32:56.673Z,4.06
2023-03-15T08:33:56.633Z,4.16
2023-03-15T08:34:56.955Z,4.13
2023-03-15T08:35:57.172Z,4.08
2023-03-15T08:36:57.120Z,4.13
2023-03-15T08:37:56.613Z,4.16
2023-03-15T08:38:56.605Z,4.17
2023-03-15T08:39:56.668Z,4.26
2023-03-15T08:40:56.755Z,4.36
2023-03-15T08:41:56.624Z,4.48
2023-03-15T08:42:56.548Z,4.53
2023-03-15T08:43:56.546Z,4.57
2023-03-15T08:44:56.697Z,4.57
2023-03-15T08:46:01.255Z,4.57
2023-03-15T08:46:56.595Z,4.56
2023-03-15T08:47:56.582Z,4.60
2023-03-15T08:48:56.543Z,4.66
2023-03-15T08:49:56.592Z,4.72
2023-03-15T08:50:56.539Z,4.77
2023-03-15T08:51:56.451Z,4.77
2023-03-15T08:52:56.440Z,4.83
2023-03-15T08:53:56.457Z,4.78
2023-03-15T08:54:56.414Z,4.77
2023-03-15T08:55:56.454Z,4.66
2023-03-15T08:56:56.404Z,4.74
2023-03-15T08:57:56.398Z,4.83
2023-03-15T08:58:56.474Z,4.72
2023-03-15T08:59:56.375Z,4.82
2023-03-15T09:00:56.374Z,4.89
2023-03-15T09:01:56.585Z,5.01
2023-03-15T09:02:56.558Z,5.07
2023-03-15T09:03:56.630Z,5.00
2023-03-15T09:04:56.435Z,5.09
2023-03-15T09:05:56.493Z,5.09
2023-03-15T09:06:56.281Z,5.22
2023-03-15T09:07:56.413Z,5.36
2023-03-15T09:08:56.366Z,5.52
2023-03-15T09:09:56.283Z,5.57
2023-03-15T09:10:56.239Z,5.65
2023-03-15T09:11:56.507Z,5.55
2023-03-15T09:12:56.228Z,5.51
2023-03-15T09:13:56.218Z,5.57
2023-03-15T09:14:56.206Z,5.67
2023-03-15T09:15:56.262Z,5.77
2023-03-15T09:16:56.353Z,5.90
2023-03-15T09:17:56.210Z,6.00
2023-03-15T09:18:56.170Z,6.08
2023-03-15T09:19:56.194Z,5.98
2023-03-15T09:20:57.659Z,5.97
2023-03-15T09:21:59.430Z,6.00
2023-03-15T09:22:56.208Z,6.00
2023-03-15T09:23:56.108Z,5.94
2023-03-15T09:24:56.468Z,6.06
2023-03-15T09:25:56.103Z,6.11
2023-03-15T09:26:56.079Z,6.21
2023-03-15T09:27:56.092Z,6.37
2023-03-15T09:28:56.056Z,6.43
2023-03-15T09:29:56.057Z,6.35
2023-03-15T09:30:58.223Z,6.31
2023-03-15T09:31:56.041Z,6.28
2023-03-15T09:32:56.167Z,6.21
2023-03-15T09:33:56.002Z,6.27
2023-03-15T09:34:56.049Z,6.50
2023-03-15T09:35:56.068Z,6.64
2023-03-15T09:36:55.999Z,6.82
2023-03-15T09:37:55.969Z,6.97
2023-03-15T09:38:56.020Z,7.16
2023-03-15T09:39:55.932Z,7.22
2023-03-15T09:40:55.926Z,7.50
2023-03-15T09:41:55.911Z,7.60
2023-03-15T09:42:55.941Z,7.44
2023-03-15T09:43:55.952Z,7.49
2023-03-15T09:44:55.864Z,7.64
2023-03-15T09:45:55.971Z,7.47
2023-03-15T09:46:55.866Z,7.58
2023-03-15T09:47:55.880Z,7.86
2023-03-15T09:48:55.858Z,8.14
2023-03-15T09:49:55.960Z,8.32
2023-03-15T09:50:55.933Z,8.50
2023-03-15T09:51:55.883Z,8.72
2023-03-15T09:52:55.786Z,8.68
2023-03-15T09:53:55.815Z,9.06
2023-03-15T09:54:55.822Z,9.47
2023-03-15T09:55:55.785Z,9.50
2023-03-15T09:56:55.766Z,9.41
2023-03-15T09:57:55.773Z,9.37
2023-03-15T09:58:55.757Z,9.51
2023-03-15T09:59:55.740Z,9.59
2023-03-15T10:00:55.724Z,10.18
2023-03-15T10:01:55.819Z,10.75
2023-03-15T10:02:55.695Z,11.12
2023-03-15T10:03:55.854Z,10.87
2023-03-15T10:04:55.692Z,10.46
2023-03-15T10:05:55.682Z,10.38
2023-03-15T10:06:55.658Z,10.65
2023-03-15T10:07:55.646Z,10.42
2023-03-15T10:08:55.868Z,10.26
2023-03-15T10:09:55.621Z,10.72
2023-03-15T10:10:55.613Z,11.05
2023-03-15T10:11:55.611Z,11.28
2023-03-15T10:12:55.585Z,11.41
2023-03-15T10:13:55.616Z,10.60
2023-03-15T10:14:55.562Z,10.21
2023-03-15T10:15:55.567Z,10.30
2023-03-15T10:16:55.610Z,10.76
2023-03-15T10:17:55.551Z,10.97
2023-03-15T10:18:55.524Z,10.94
2023-03-15T10:19:55.513Z,11.22
2023-03-15T10:20:55.553Z,11.85
2023-03-15T10:21:55.733Z,12.29
2023-03-15T10:22:55.570Z,12.50
2023-03-15T10:23:55.469Z,12.79
2023-03-15T10:24:56.206Z,12.95
2023-03-15T10:25:55.467Z,13.26
2023-03-15T10:26:55.437Z,12.99
2023-03-15T10:27:55.443Z,12.59
2023-03-15T10:28:55.428Z,12.54
2023-03-15T10:29:55.561Z,12.96
2023-03-15T10:30:55.421Z,12.79
2023-03-15T10:31:55.819Z,12.59
2023-03-15T10:32:55.502Z,12.30
2023-03-15T10:33:55.362Z,12.38
2023-03-15T10:34:55.499Z,12.80
2023-03-15T10:36:04.373Z,13.06
2023-03-15T10:36:55.589Z,13.32
2023-03-15T10:37:55.351Z,13.32
2023-03-15T10:38:55.308Z,13.72
2023-03-15T10:39:55.299Z,13.86
2023-03-15T10:40:55.285Z,13.85
2023-03-15T10:41:55.275Z,13.46
2023-03-15T10:42:55.326Z,12.40
2023-03-15T10:43:55.308Z,12.46
2023-03-15T10:44:55.416Z,13.46
2023-03-15T10:45:55.335Z,12.40
2023-03-15T10:46:55.266Z,11.27
2023-03-15T10:48:00.316Z,11.59
2023-03-15T10:48:55.238Z,11.37
2023-03-15T10:49:55.194Z,12.44
2023-03-15T10:50:55.166Z,13.13
2023-03-15T10:51:55.221Z,13.51
2023-03-15T10:52:55.157Z,14.04
2023-03-15T10:53:55.150Z,14.44
2023-03-15T10:54:58.697Z,14.44
2023-03-15T10:55:55.158Z,14.11
2023-03-15T10:56:55.110Z,11.99
2023-03-15T10:57:55.101Z,12.41
2023-03-15T10:59:11.127Z,13.24
2023-03-15T10:59:55.091Z,13.76
2023-03-15T11:00:55.061Z,14.05
2023-03-15T11:01:55.144Z,14.16
2023-03-15T11:02:55.064Z,14.00
2023-03-15T11:03:55.041Z,14.09
2023-03-15T11:04:55.306Z,14.00
2023-03-15T11:05:55.011Z,14.90
2023-03-15T11:06:55.005Z,15.51
2023-03-15T11:07:55.189Z,15.84
2023-03-15T11:08:55.019Z,15.44
2023-03-15T11:09:55.199Z,15.88
2023-03-15T11:10:54.951Z,16.02
2023-03-15T11:11:54.947Z,15.76
2023-03-15T11:12:55.558Z,15.99
2023-03-15T11:13:55.127Z,15.38
2023-03-15T11:14:54.926Z,14.93
2023-03-15T11:15:54.967Z,14.90
2023-03-15T11:16:54.925Z,15.07
2023-03-15T11:17:54.943Z,14.87
2023-03-15T11:18:54.934Z,14.85
2023-03-15T11:19:54.892Z,15.05
2023-03-15T11:20:54.894Z,14.77
2023-03-15T11:21:54.840Z,13.94
2023-03-15T11:22:54.864Z,14.19
2023-03-15T11:23:55.133Z,14.70
2023-03-15T11:24:55.197Z,15.47
2023-03-15T11:25:54.836Z,15.29
2023-03-15T11:26:54.787Z,15.51
2023-03-15T11:27:54.774Z,16.05
2023-03-15T11:28:54.769Z,16.42
2023-03-15T11:29:54.774Z,16.90
2023-03-15T11:30:54.746Z,16.17
2023-03-15T11:31:54.794Z,16.02
2023-03-15T11:32:54.766Z,16.22
2023-03-15T11:33:54.786Z,16.16
2023-03-15T11:34:54.698Z,15.95
2023-03-15T11:35:54.827Z,16.32
2023-03-15T11:37:07.026Z,16.14
2023-03-15T11:37:58.532Z,15.96
2023-03-15T11:38:54.692Z,16.26
2023-03-15T11:40:05.022Z,16.37
2023-03-15T11:40:54.668Z,16.16
2023-03-15T11:41:54.656Z,15.85
2023-03-15T11:42:54.603Z,15.32
2023-03-15T11:43:54.614Z,14.96
2023-03-15T11:44:54.584Z,15.40
2023-03-15T11:45:54.607Z,15.25
2023-03-15T11:46:54.582Z,15.84
2023-03-15T11:47:54.559Z,15.45
2023-03-15T11:48:54.547Z,15.07
2023-03-15T11:49:54.587Z,14.87
2023-03-15T11:50:54.521Z,14.56
2023-03-15T11:51:54.549Z,15.04
2023-03-15T11:52:54.512Z,14.66
2023-03-15T11:53:54.514Z,14.41
2023-03-15T11:54:54.566Z,13.78
2023-03-15T11:55:54.484Z,13.85
2023-03-15T11:56:54.493Z,13.78
2023-03-15T11:57:54.688Z,13.29
2023-03-15T11:58:54.464Z,13.55
2023-03-15T11:59:54.469Z,13.94
2023-03-15T12:00:54.472Z,13.54
2023-03-15T12:01:54.475Z,13.04
2023-03-15T12:02:54.497Z,13.06
2023-03-15T12:03:54.419Z,13.14
2023-03-15T12:04:54.385Z,13.43
2023-03-15T12:05:54.384Z,13.47
2023-03-15T12:06:54.380Z,13.23
2023-03-15T12:07:54.423Z,13.51
2023-03-15T12:08:54.362Z,13.88
2023-03-15T12:09:54.371Z,14.15
2023-03-15T12:10:54.447Z,14.48
2023-03-15T12:11:54.306Z,14.59
2023-03-15T12:12:54.445Z,14.67
2023-03-15T12:13:54.292Z,14.79
2023-03-15T12:14:54.754Z,15.27
2023-03-15T12:15:54.287Z,15.19
2023-03-15T12:16:54.381Z,15.33
2023-03-15T12:17:54.319Z,14.63
2023-03-15T12:18:54.343Z,14.49
2023-03-15T12:19:54.255Z,14.89
2023-03-15T12:20:54.352Z,14.85
2023-03-15T12:21:54.439Z,15.29
2023-03-15T12:22:54.220Z,15.88
2023-03-15T12:23:54.170Z,16.37
2023-03-15T12:24:54.172Z,15.70
2023-03-15T12:25:55.412Z,15.98
2023-03-15T12:26:54.200Z,16.67
2023-03-15T12:27:54.153Z,16.98
2023-03-15T12:28:54.268Z,17.22
2023-03-15T12:29:54.130Z,17.47
2023-03-15T12:30:54.194Z,17.10
2023-03-15T12:31:54.087Z,16.74
2023-03-15T12:32:54.488Z,17.10
2023-03-15T12:33:54.075Z,17.34
2023-03-15T12:34:54.362Z,17.65
2023-03-15T12:35:54.112Z,18.09
2023-03-15T12:36:54.037Z,17.72
2023-03-15T12:37:54.064Z,18.01
2023-03-15T12:38:54.038Z,18.13
2023-03-15T12:39:54.028Z,18.28
2023-03-15T12:40:54.004Z,17.91
2023-03-15T12:41:53.991Z,17.59
2023-03-15T12:42:54.043Z,17.87
2023-03-15T12:43:54.126Z,18.06
2023-03-15T12:44:53.982Z,17.79
2023-03-15T12:45:53.999Z,17.43
2023-03-15T12:46:53.956Z,16.05
2023-03-15T12:47:53.937Z,16.64
2023-03-15T12:48:54.060Z,16.70
2023-03-15T12:49:53.913Z,17.35
2023-03-15T12:50:53.914Z,18.24
2023-03-15T12:51:53.888Z,18.85
2023-03-15T12:52:54.057Z,18.39
2023-03-15T12:53:53.904Z,18.28
2023-03-15T12:54:53.920Z,17.65
2023-03-15T12:56:02.885Z,17.65
2023-03-15T12:56:53.956Z,17.28
2023-03-15T12:57:55.367Z,17.91
2023-03-15T12:58:53.903Z,18.05
2023-03-15T12:59:53.836Z,18.41
2023-03-15T13:00:53.888Z,17.22
2023-03-15T13:01:53.897Z,16.88
2023-03-15T13:02:53.972Z,17.50
2023-03-15T13:03:54.198Z,17.87
2023-03-15T13:04:53.753Z,18.12
2023-03-15T13:06:03.244Z,17.73
2023-03-15T13:06:53.747Z,18.30
2023-03-15T13:07:53.747Z,18.02
2023-03-15T13:08:53.736Z,18.18
2023-03-15T13:09:53.757Z,18.61
2023-03-15T13:10:53.703Z,18.52
2023-03-15T13:11:53.690Z,18.71